createdAt,value
2018-12-23T00:00:24.223Z,9.20
2018-12-23T00:02:51.665Z,9.20
2018-12-23T00:05:19.135Z,9.20
2018-12-23T00:07:46.578Z,9.30
2018-12-23T00:10:14.056Z,9.30
2018-12-23T00:12:41.525Z,9.20
2018-12-23T00:15:09.026Z,9.20
2018-12-23T00:17:36.478Z,9.20
2018-12-23T00:20:07.078Z,9.20
2018-12-23T00:22:34.522Z,9.20
2018-12-23T00:25:02.004Z,9.20
2018-12-23T00:27:29.461Z,9.20
2018-12-23T00:29:56.901Z,9.20
2018-12-23T00:32:24.366Z,9.20
2018-12-23T00:34:51.862Z,9.20
2018-12-23T00:37:19.322Z,9.10
2018-12-23T00:39:46.794Z,9.10
2018-12-23T00:42:14.237Z,9.10
2018-12-23T00:44:41.709Z,9.20
2018-12-23T00:47:09.153Z,9.20
2018-12-23T00:49:36.662Z,9.20
2018-12-23T00:52:04.096Z,9.20
2018-12-23T00:54:31.526Z,9.20
2018-12-23T00:57:00.745Z,9.20
2018-12-23T00:59:28.257Z,9.20
2018-12-23T01:01:56.149Z,9.20
2018-12-23T01:04:23.685Z,9.20
2018-12-23T01:06:51.154Z,9.10
2018-12-23T01:09:18.585Z,9.20
2018-12-23T01:11:46.053Z,9.20
2018-12-23T01:14:13.486Z,9.10
2018-12-23T01:16:40.976Z,9.10
2018-12-23T01:19:08.408Z,9.10
2018-12-23T01:21:35.869Z,9.10
2018-12-23T01:24:03.334Z,9.20
2018-12-23T01:26:30.797Z,9.20
2018-12-23T01:28:58.238Z,9.20
2018-12-23T01:31:25.709Z,9.20
2018-12-23T01:33:53.147Z,9.20
2018-12-23T01:36:20.646Z,9.20
2018-12-23T01:38:48.097Z,9.30
2018-12-23T01:41:15.562Z,9.30
2018-12-23T01:43:43.008Z,9.30
2018-12-23T01:46:10.474Z,9.40
2018-12-23T01:48:37.906Z,9.40
2018-12-23T01:51:05.386Z,9.40
2018-12-23T01:53:32.845Z,9.30
2018-12-23T01:56:00.321Z,9.30
2018-12-23T01:58:27.766Z,9.30
2018-12-23T02:00:55.233Z,9.30
2018-12-23T02:03:22.663Z,9.30
2018-12-23T02:05:50.133Z,9.30
2018-12-23T02:08:17.583Z,9.30
2018-12-23T02:10:45.065Z,9.30
2018-12-23T02:13:12.514Z,9.30
2018-12-23T02:15:39.965Z,9.20
2018-12-23T02:18:07.410Z,9.20
2018-12-23T02:20:34.864Z,9.20
2018-12-23T02:23:02.310Z,9.20
2018-12-23T02:25:29.777Z,9.30
2018-12-23T02:27:57.238Z,9.30
2018-12-23T02:30:24.716Z,9.30
2018-12-23T02:32:52.146Z,9.30
2018-12-23T02:35:19.615Z,9.30
2018-12-23T02:37:47.056Z,9.30
2018-12-23T02:40:14.527Z,9.30
2018-12-23T02:42:41.987Z,9.30
2018-12-23T02:45:09.441Z,9.30
2018-12-23T02:47:36.884Z,9.30
2018-12-23T02:50:04.798Z,9.30
2018-12-23T02:52:32.234Z,9.30
2018-12-23T02:54:59.702Z,9.30
2018-12-23T02:57:27.189Z,9.30
2018-12-23T02:59:54.651Z,9.40
2018-12-23T03:02:22.085Z,9.40
2018-12-23T03:04:49.561Z,9.40
2018-12-23T03:07:17.020Z,9.40
2018-12-23T03:09:44.480Z,9.40
2018-12-23T03:12:11.977Z,9.40
2018-12-23T03:14:39.632Z,9.40
2018-12-23T03:17:07.069Z,9.40
2018-12-23T03:19:34.499Z,9.40
2018-12-23T03:22:02.087Z,9.30
2018-12-23T03:24:29.592Z,9.30
2018-12-23T03:26:57.075Z,9.40
2018-12-23T03:29:24.550Z,9.40
2018-12-23T03:31:52.021Z,9.40
2018-12-23T03:34:19.547Z,9.40
2018-12-23T03:36:47.162Z,9.40
2018-12-23T03:39:14.689Z,9.40
2018-12-23T03:41:42.156Z,9.40
2018-12-23T03:44:09.606Z,9.30
2018-12-23T03:46:37.298Z,9.30
2018-12-23T03:49:04.730Z,9.30
2018-12-23T03:51:32.255Z,9.30
2018-12-23T03:53:59.801Z,9.30
2018-12-23T03:56:27.365Z,9.30
2018-12-23T03:58:54.881Z,9.30
2018-12-23T04:01:22.346Z,9.30
2018-12-23T04:03:49.777Z,9.30
2018-12-23T04:06:24.406Z,9.30
2018-12-23T04:08:46.702Z,9.20
2018-12-23T04:11:14.230Z,9.20
2018-12-23T04:13:41.660Z,9.20
2018-12-23T04:16:09.145Z,9.20
2018-12-23T04:18:36.627Z,9.10
2018-12-23T04:21:04.079Z,9.10
2018-12-23T04:23:31.513Z,9.10
2018-12-23T04:25:58.969Z,9.10
2018-12-23T04:28:26.400Z,9.10
2018-12-23T04:30:53.893Z,9.00
2018-12-23T04:33:21.423Z,9.00
2018-12-23T04:35:49.026Z,9.00
2018-12-23T04:38:16.453Z,9.00
2018-12-23T04:40:43.920Z,9.00
2018-12-23T04:43:11.362Z,9.00
2018-12-23T04:45:38.835Z,9.00
2018-12-23T04:48:06.272Z,9.00
2018-12-23T04:50:33.725Z,9.10
2018-12-23T04:53:01.165Z,9.10
2018-12-23T04:55:28.641Z,9.10
2018-12-23T04:57:56.105Z,9.10
2018-12-23T05:00:23.567Z,9.10
2018-12-23T05:02:51.073Z,9.10
2018-12-23T05:05:18.538Z,9.20
2018-12-23T05:07:45.974Z,9.20
2018-12-23T05:10:13.495Z,9.30
2018-12-23T05:12:40.929Z,9.20
2018-12-23T05:15:08.472Z,9.30
2018-12-23T05:17:35.997Z,9.30
2018-12-23T05:20:03.859Z,9.20
2018-12-23T05:22:31.306Z,9.20
2018-12-23T05:24:58.865Z,9.20
2018-12-23T05:27:26.301Z,9.20
2018-12-23T05:29:53.774Z,9.30
2018-12-23T05:32:21.200Z,9.30
2018-12-23T05:34:48.705Z,9.20
2018-12-23T05:37:16.132Z,9.30
2018-12-23T05:39:43.612Z,9.30
2018-12-23T05:42:11.047Z,9.30
2018-12-23T05:44:38.521Z,9.40
2018-12-23T05:47:05.957Z,9.30
2018-12-23T05:49:33.412Z,9.30
2018-12-23T05:52:01.153Z,9.20
2018-12-23T05:54:28.606Z,9.20
2018-12-23T05:56:56.057Z,9.30
2018-12-23T05:59:23.544Z,9.30
2018-12-23T06:01:51.092Z,9.20
2018-12-23T06:04:18.602Z,9.20
2018-12-23T06:06:46.280Z,9.20
2018-12-23T06:09:13.794Z,9.20
2018-12-23T06:11:41.415Z,9.20
2018-12-23T06:14:08.893Z,9.30
2018-12-23T06:16:36.325Z,9.30
2018-12-23T06:19:03.853Z,9.30
2018-12-23T06:21:31.317Z,9.30
2018-12-23T06:23:58.766Z,9.30
2018-12-23T06:26:26.226Z,9.30
2018-12-23T06:28:53.664Z,9.30
2018-12-23T06:31:21.150Z,9.30
2018-12-23T06:33:48.741Z,9.30
2018-12-23T06:36:16.261Z,9.30
2018-12-23T06:38:43.717Z,9.30
2018-12-23T06:41:11.177Z,9.30
2018-12-23T06:43:38.645Z,9.40
2018-12-23T06:46:06.167Z,9.30
2018-12-23T06:48:35.571Z,9.30
2018-12-23T06:51:03.148Z,9.30
2018-12-23T06:53:30.681Z,9.30
2018-12-23T06:55:58.143Z,9.30
2018-12-23T06:58:25.583Z,9.30
2018-12-23T07:00:53.058Z,9.30
2018-12-23T07:03:20.480Z,9.20
2018-12-23T07:05:47.950Z,9.20
2018-12-23T07:08:15.412Z,9.30
2018-12-23T07:10:42.895Z,9.30
2018-12-23T07:13:10.335Z,9.30
2018-12-23T07:15:37.871Z,9.30
2018-12-23T07:18:05.318Z,9.30
2018-12-23T07:20:32.832Z,9.30
2018-12-23T07:23:00.392Z,9.30
2018-12-23T07:25:28.442Z,9.30
2018-12-23T07:27:56.585Z,9.30
2018-12-23T07:30:24.097Z,9.30
2018-12-23T07:32:51.533Z,9.30
2018-12-23T07:35:19.005Z,9.30
2018-12-23T07:37:46.453Z,9.30
2018-12-23T07:40:13.913Z,9.30
2018-12-23T07:42:41.385Z,9.30
2018-12-23T07:45:08.888Z,9.30
2018-12-23T07:47:36.398Z,9.30
2018-12-23T07:50:05.049Z,9.30
2018-12-23T07:52:32.477Z,9.40
2018-12-23T07:55:00.260Z,9.40
2018-12-23T07:57:27.806Z,9.30
2018-12-23T07:59:55.274Z,9.30
2018-12-23T08:02:22.708Z,9.30
2018-12-23T08:04:50.224Z,9.30
2018-12-23T08:07:17.665Z,9.30
2018-12-23T08:09:45.146Z,9.40
2018-12-23T08:12:12.614Z,9.30
2018-12-23T08:14:40.044Z,9.30
2018-12-23T08:17:07.515Z,9.30
2018-12-23T08:19:34.953Z,9.30
2018-12-23T08:22:02.417Z,9.30
2018-12-23T08:24:29.936Z,9.30
2018-12-23T08:26:57.442Z,9.40
2018-12-23T08:29:24.881Z,9.40
2018-12-23T08:31:52.419Z,9.40
2018-12-23T08:34:19.865Z,9.40
2018-12-23T08:36:47.339Z,9.40
2018-12-23T08:39:15.035Z,9.40
2018-12-23T08:41:42.511Z,9.50
2018-12-23T08:44:09.983Z,9.50
2018-12-23T08:46:39.250Z,9.60
2018-12-23T08:49:07.062Z,9.60
2018-12-23T08:51:34.585Z,9.60
2018-12-23T08:54:02.028Z,9.60
2018-12-23T08:56:29.493Z,9.60
2018-12-23T08:58:58.329Z,9.60
2018-12-23T09:01:25.911Z,9.60
2018-12-23T09:03:53.458Z,9.50
2018-12-23T09:06:21.040Z,9.50
2018-12-23T09:08:48.556Z,9.60
2018-12-23T09:11:16.127Z,9.60
2018-12-23T09:13:43.571Z,9.60
2018-12-23T09:16:11.031Z,9.60
2018-12-23T09:18:38.562Z,9.70
2018-12-23T09:21:06.080Z,9.60
2018-12-23T09:23:33.565Z,9.70
2018-12-23T09:26:01.015Z,9.70
2018-12-23T09:28:28.552Z,9.70
2018-12-23T09:30:55.988Z,9.70
2018-12-23T09:33:23.422Z,9.60
2018-12-23T09:35:50.913Z,9.60
2018-12-23T09:38:18.356Z,9.60
2018-12-23T09:40:45.855Z,9.60
2018-12-23T09:43:14.898Z,9.70
2018-12-23T09:45:42.581Z,9.60
2018-12-23T09:48:10.031Z,9.60
2018-12-23T09:50:37.495Z,9.60
2018-12-23T09:53:04.955Z,9.60
2018-12-23T09:55:32.446Z,9.60
2018-12-23T09:57:59.910Z,9.60
2018-12-23T10:00:27.380Z,9.60
2018-12-23T10:02:54.846Z,9.70
2018-12-23T10:05:22.390Z,9.70
2018-12-23T10:07:49.847Z,9.70
2018-12-23T10:10:17.277Z,9.80
2018-12-23T10:12:44.785Z,9.80
2018-12-23T10:15:12.430Z,9.90
2018-12-23T10:17:39.905Z,9.80
2018-12-23T10:20:08.505Z,9.90
2018-12-23T10:22:35.967Z,9.80
2018-12-23T10:25:04.282Z,9.80
2018-12-23T10:27:32.810Z,9.80
2018-12-23T10:30:00.419Z,9.80
2018-12-23T10:32:28.005Z,9.80
2018-12-23T10:34:55.444Z,9.80
2018-12-23T10:37:22.920Z,9.90
2018-12-23T10:39:50.392Z,9.90
2018-12-23T10:42:17.949Z,9.90
2018-12-23T10:44:45.601Z,10.00
2018-12-23T10:47:13.171Z,10.00
2018-12-23T10:49:40.631Z,10.00
2018-12-23T10:52:08.131Z,10.00
2018-12-23T10:54:36.237Z,10.00
2018-12-23T10:57:03.967Z,10.00
2018-12-23T10:59:31.419Z,10.00
2018-12-23T11:01:58.907Z,10.00
2018-12-23T11:04:26.401Z,10.00
2018-12-23T11:06:53.865Z,10.00
2018-12-23T11:09:21.331Z,10.00
2018-12-23T11:11:48.835Z,10.00
2018-12-23T11:14:16.306Z,10.00
2018-12-23T11:16:43.877Z,10.00
2018-12-23T11:19:11.328Z,10.00
2018-12-23T11:21:38.838Z,10.00
2018-12-23T11:24:06.343Z,10.00
2018-12-23T11:26:33.895Z,10.10
2018-12-23T11:29:01.351Z,10.10
2018-12-23T11:31:28.822Z,10.20
2018-12-23T11:33:56.277Z,10.20
2018-12-23T11:36:23.776Z,10.20
2018-12-23T11:38:51.253Z,10.20
2018-12-23T11:41:18.750Z,10.30
2018-12-23T11:43:47.303Z,10.30
2018-12-23T11:46:14.854Z,10.20
2018-12-23T11:48:43.217Z,10.20
2018-12-23T11:51:14.876Z,10.20
2018-12-23T11:53:42.353Z,10.20
2018-12-23T11:56:09.851Z,10.20
2018-12-23T11:58:37.411Z,10.10
2018-12-23T12:01:05.275Z,10.10
2018-12-23T12:03:32.742Z,10.10
2018-12-23T12:06:00.243Z,10.20
2018-12-23T12:08:27.693Z,10.20
2018-12-23T12:10:55.345Z,10.20
2018-12-23T12:13:23.460Z,10.30
2018-12-23T12:15:52.972Z,10.30
2018-12-23T12:18:21.642Z,10.20
2018-12-23T12:20:49.596Z,10.10
2018-12-23T12:23:17.094Z,10.10
2018-12-23T12:25:44.709Z,10.10
2018-12-23T12:28:12.372Z,10.00
2018-12-23T12:30:39.936Z,10.00
2018-12-23T12:33:07.615Z,10.00
2018-12-23T12:35:35.169Z,9.90
2018-12-23T12:38:02.591Z,9.90
2018-12-23T12:40:30.033Z,9.90
2018-12-23T12:42:57.493Z,9.90
2018-12-23T12:45:24.995Z,9.90
2018-12-23T12:47:52.662Z,9.80
2018-12-23T12:50:20.118Z,9.80
2018-12-23T12:52:47.602Z,9.90
2018-12-23T12:55:15.127Z,9.90
2018-12-23T12:57:42.689Z,9.80
2018-12-23T13:00:10.108Z,9.80
2018-12-23T13:02:37.579Z,9.70
2018-12-23T13:05:05.114Z,9.80
2018-12-23T13:07:32.608Z,9.80
2018-12-23T13:10:00.258Z,9.80
2018-12-23T13:12:28.415Z,9.90
2018-12-23T13:14:55.857Z,9.90
2018-12-23T13:17:23.331Z,10.00
2018-12-23T13:19:50.858Z,10.00
2018-12-23T13:22:21.810Z,10.10
2018-12-23T13:24:49.282Z,10.10
2018-12-23T13:27:16.773Z,10.20
2018-12-23T13:29:44.217Z,10.30
2018-12-23T13:32:11.702Z,10.30
2018-12-23T13:34:39.143Z,10.30
2018-12-23T13:37:06.697Z,10.30
2018-12-23T13:39:34.126Z,10.30
2018-12-23T13:42:07.257Z,10.30
2018-12-23T13:44:50.483Z,10.30
2018-12-23T13:47:44.449Z,10.30
2018-12-23T13:54:00.584Z,10.30
2018-12-23T13:56:41.567Z,10.40
2018-12-23T13:59:22.106Z,10.40
2018-12-23T14:01:53.711Z,10.30
2018-12-23T14:04:59.006Z,10.30
2018-12-23T14:07:33.577Z,10.30
2018-12-23T14:10:31.934Z,10.30
2018-12-23T14:13:00.484Z,10.20
2018-12-23T14:15:29.003Z,10.20
2018-12-23T14:17:58.191Z,10.20
2018-12-23T14:20:26.703Z,10.20
2018-12-23T14:22:55.280Z,10.20
2018-12-23T14:25:23.813Z,10.20
2018-12-23T14:27:52.776Z,10.20
2018-12-23T14:30:21.606Z,10.20
2018-12-23T14:32:50.493Z,10.20
2018-12-23T14:35:19.274Z,10.20
2018-12-23T14:37:47.880Z,10.20
2018-12-23T14:40:16.464Z,10.20
2018-12-23T14:42:45.238Z,10.20
2018-12-23T14:45:14.008Z,10.10
2018-12-23T14:47:42.821Z,10.10
2018-12-23T14:50:11.621Z,10.10
2018-12-23T14:52:40.133Z,10.10
2018-12-23T14:55:08.966Z,10.10
2018-12-23T14:57:37.516Z,10.00
2018-12-23T15:00:09.516Z,10.00
2018-12-23T15:02:38.019Z,10.00
2018-12-23T15:05:07.051Z,10.00
2018-12-23T15:07:35.891Z,10.00
2018-12-23T15:10:06.935Z,10.10
2018-12-23T15:12:35.849Z,10.10
2018-12-23T15:15:04.540Z,10.00
2018-12-23T15:17:33.071Z,10.00
2018-12-23T15:20:01.995Z,10.10
2018-12-23T15:22:30.853Z,10.10
2018-12-23T15:24:59.759Z,10.10
2018-12-23T15:27:28.289Z,10.20
2018-12-23T15:29:56.837Z,10.20
2018-12-23T15:32:25.603Z,10.20
2018-12-23T15:34:54.163Z,10.30
2018-12-23T15:37:22.676Z,10.20
2018-12-23T15:39:51.551Z,10.30
2018-12-23T15:42:20.126Z,10.30
2018-12-23T15:44:48.670Z,10.20
2018-12-23T15:47:17.648Z,10.20
2018-12-23T15:49:46.508Z,10.20
2018-12-23T15:52:15.297Z,10.30
2018-12-23T15:54:46.370Z,10.20
2018-12-23T15:57:14.427Z,10.20
2018-12-23T15:59:43.136Z,10.20
2018-12-23T16:02:11.972Z,10.20
2018-12-23T16:04:40.492Z,10.20
2018-12-23T16:07:09.465Z,10.20
2018-12-23T16:09:37.999Z,10.20
2018-12-23T16:12:08.368Z,10.10
2018-12-23T16:14:37.153Z,10.10
2018-12-23T16:17:06.144Z,10.10
2018-12-23T16:19:35.181Z,10.10
2018-12-23T16:22:04.534Z,10.10
2018-12-23T16:24:33.362Z,10.10
2018-12-23T16:27:02.131Z,10.10
2018-12-23T16:29:31.015Z,10.10
2018-12-23T16:31:59.943Z,10.00
2018-12-23T16:34:28.787Z,10.00
2018-12-23T16:36:57.660Z,10.00
2018-12-23T16:39:26.392Z,10.10
2018-12-23T16:41:55.390Z,10.10
2018-12-23T16:44:24.242Z,10.10
2018-12-23T16:46:53.150Z,10.10
2018-12-23T16:49:21.755Z,10.20
2018-12-23T16:51:50.610Z,10.20
2018-12-23T16:54:19.174Z,10.10
2018-12-23T16:56:47.751Z,10.10
2018-12-23T16:59:16.313Z,10.10
2018-12-23T17:01:44.844Z,10.00
2018-12-23T17:04:13.793Z,10.00
2018-12-23T17:06:42.389Z,10.00
2018-12-23T17:09:11.028Z,10.00
2018-12-23T17:11:39.815Z,10.00
2018-12-23T17:14:10.650Z,10.00
2018-12-23T17:16:38.974Z,10.00
2018-12-23T17:19:07.786Z,9.90
2018-12-23T17:21:36.741Z,9.90
2018-12-23T17:24:05.271Z,9.90
2018-12-23T17:26:34.153Z,9.90
2018-12-23T17:29:02.711Z,9.90
2018-12-23T17:31:35.548Z,9.90
2018-12-23T17:34:05.071Z,9.90
2018-12-23T17:36:33.654Z,9.90
2018-12-23T17:39:02.595Z,9.90
2018-12-23T17:41:31.548Z,9.90
2018-12-23T17:44:00.526Z,9.90
2018-12-23T17:46:29.475Z,9.80
2018-12-23T17:49:02.053Z,9.90
2018-12-23T17:51:30.949Z,9.80
2018-12-23T17:53:59.822Z,9.80
2018-12-23T17:56:28.713Z,9.80
2018-12-23T17:58:57.612Z,9.80
2018-12-23T18:01:26.514Z,9.80
2018-12-23T18:04:02.304Z,9.80
2018-12-23T18:06:25.806Z,9.80
2018-12-23T18:08:57.202Z,9.80
2018-12-23T18:11:26.781Z,9.80
2018-12-23T18:13:56.245Z,9.80
2018-12-23T18:16:27.329Z,9.80
2018-12-23T18:18:56.835Z,9.80
2018-12-23T18:21:25.793Z,9.70
2018-12-23T18:23:54.691Z,9.70
2018-12-23T18:26:23.247Z,9.70
2018-12-23T18:28:52.209Z,9.70
2018-12-23T18:31:21.587Z,9.70
2018-12-23T18:33:50.314Z,9.70
2018-12-23T18:36:19.539Z,9.70
2018-12-23T18:38:49.062Z,9.70
2018-12-23T18:41:17.983Z,9.70
2018-12-23T18:43:46.843Z,9.70
2018-12-23T18:46:18.167Z,9.70
2018-12-23T18:48:47.278Z,9.70
2018-12-23T18:51:19.446Z,9.70
2018-12-23T18:53:49.710Z,9.70
2018-12-23T18:56:18.330Z,9.70
2018-12-23T18:58:48.596Z,9.70
2018-12-23T19:01:18.198Z,9.70
2018-12-23T19:03:49.851Z,9.60
2018-12-23T19:06:19.008Z,9.60
2018-12-23T19:08:59.343Z,9.60
2018-12-23T19:11:45.701Z,9.60
2018-12-23T19:14:35.715Z,9.60
2018-12-23T19:17:29.146Z,9.60
2018-12-23T19:20:20.532Z,9.50
2018-12-23T19:23:11.785Z,9.50
2018-12-23T19:25:52.472Z,9.50
2018-12-23T19:28:32.830Z,9.50
2018-12-23T19:31:10.152Z,9.50
2018-12-23T19:33:53.743Z,9.40
2018-12-23T19:36:25.347Z,9.40
2018-12-23T19:38:57.053Z,9.40
2018-12-23T19:42:03.716Z,9.40
2018-12-23T19:44:42.164Z,9.40
2018-12-23T19:47:20.430Z,9.40
2018-12-23T19:49:58.225Z,9.40
2018-12-23T19:53:03.799Z,9.30
2018-12-23T19:55:45.273Z,9.30
2018-12-23T19:58:19.882Z,9.30
2018-12-23T20:01:01.050Z,9.30
2018-12-23T20:03:36.012Z,9.30
2018-12-23T20:06:28.901Z,9.30
2018-12-23T20:09:25.480Z,9.30
2018-12-23T20:12:00.913Z,9.30
2018-12-23T20:14:41.232Z,9.30
2018-12-23T20:17:38.487Z,9.30
2018-12-23T20:20:12.883Z,9.30
2018-12-23T20:22:44.824Z,9.30
2018-12-23T20:25:40.985Z,9.30
2018-12-23T20:28:36.736Z,9.30
2018-12-23T20:31:32.607Z,9.40
2018-12-23T20:34:21.539Z,9.40
2018-12-23T20:37:02.672Z,9.40
2018-12-23T20:39:52.482Z,9.40
2018-12-23T20:42:33.705Z,9.40
2018-12-23T20:45:27.080Z,9.40
2018-12-23T20:48:15.685Z,9.40
2018-12-23T20:51:13.515Z,9.30
2018-12-23T20:53:48.024Z,9.40
2018-12-23T20:56:25.848Z,9.30
2018-12-23T20:59:03.930Z,9.30
2018-12-23T21:01:47.869Z,9.30
2018-12-23T21:04:25.136Z,9.40
2018-12-23T21:07:09.079Z,9.30
2018-12-23T21:09:47.080Z,9.40
2018-12-23T21:12:46.647Z,9.30
2018-12-23T21:15:45.614Z,9.30
2018-12-23T21:18:38.270Z,9.30
2018-12-23T21:21:31.310Z,9.30
2018-12-23T21:24:22.446Z,9.30
2018-12-23T21:26:54.806Z,9.30
2018-12-23T21:29:46.603Z,9.20
2018-12-23T21:32:21.443Z,9.20
2018-12-23T21:35:05.308Z,9.30
2018-12-23T21:37:39.790Z,9.20
2018-12-23T21:40:11.754Z,9.30
2018-12-23T21:43:00.702Z,9.30
2018-12-23T21:45:41.947Z,9.30
2018-12-23T21:48:25.402Z,9.30
2018-12-23T21:51:21.496Z,9.20
2018-12-23T21:53:58.824Z,9.20
2018-12-23T21:56:46.050Z,9.20
2018-12-23T21:59:26.733Z,9.20
2018-12-23T22:02:31.970Z,9.20
2018-12-23T22:05:18.982Z,9.20
2018-12-23T22:08:02.740Z,9.20
2018-12-23T22:10:49.241Z,9.10
2018-12-23T22:13:27.196Z,9.10
2018-12-23T22:15:56.323Z,9.00
2018-12-23T22:18:25.046Z,9.00
2018-12-23T22:20:53.591Z,8.90
2018-12-23T22:23:22.392Z,9.00
2018-12-23T22:25:53.339Z,8.90
2018-12-23T22:28:22.635Z,9.00
2018-12-23T22:30:51.185Z,9.00
2018-12-23T22:33:19.981Z,9.00
2018-12-23T22:35:48.530Z,9.00
2018-12-23T22:38:17.460Z,9.00
2018-12-23T22:40:46.367Z,9.00
2018-12-23T22:43:15.133Z,9.00
2018-12-23T22:45:44.025Z,9.00
2018-12-23T22:48:12.828Z,9.00
2018-12-23T22:50:41.482Z,9.00
2018-12-23T22:53:10.295Z,9.00
2018-12-23T22:55:38.867Z,9.00
2018-12-23T22:58:07.372Z,9.00
2018-12-23T23:00:36.640Z,9.00
2018-12-23T23:03:09.323Z,8.90
2018-12-23T23:05:35.853Z,9.00
2018-12-23T23:08:04.613Z,9.00
2018-12-23T23:10:33.434Z,9.00
2018-12-23T23:13:02.364Z,9.00
2018-12-23T23:15:30.939Z,9.00
2018-12-23T23:17:59.856Z,9.00
2018-12-23T23:20:28.363Z,9.00
2018-12-23T23:22:57.310Z,8.90
2018-12-23T23:25:25.825Z,8.90
2018-12-23T23:27:54.650Z,8.90
2018-12-23T23:30:23.451Z,8.90
2018-12-23T23:32:51.992Z,8.90
2018-12-23T23:35:20.903Z,8.90
2018-12-23T23:37:49.514Z,8.90
2018-12-23T23:40:18.027Z,8.90
2018-12-23T23:42:46.876Z,8.90
2018-12-23T23:45:15.697Z,8.90
2018-12-23T23:47:44.635Z,8.90
2018-12-23T23:50:13.142Z,8.90
2018-12-23T23:52:41.711Z,8.90
2018-12-23T23:55:10.582Z,8.90
2018-12-23T23:57:39.587Z,8.80
